createdAt,value
2018-09-22T00:02:18.700Z,15.50
2018-09-22T00:05:43.192Z,15.68
2018-09-22T00:09:10.542Z,15.66
2018-09-22T00:12:34.955Z,15.74
2018-09-22T00:15:59.406Z,16.01
2018-09-22T00:19:24.016Z,15.41
2018-09-22T00:22:48.432Z,14.56
2018-09-22T00:26:12.863Z,14.42
2018-09-22T00:29:37.280Z,14.26
2018-09-22T00:33:01.711Z,14.05
2018-09-22T00:36:26.128Z,13.77
2018-09-22T00:39:50.525Z,13.82
2018-09-22T00:43:15.120Z,14.00
2018-09-22T00:46:39.652Z,13.96
2018-09-22T00:50:05.156Z,13.70
2018-09-22T00:53:29.551Z,13.91
2018-09-22T00:56:53.952Z,13.86
2018-09-22T01:00:18.415Z,13.57
2018-09-22T01:03:42.900Z,13.75
2018-09-22T01:07:07.358Z,13.94
2018-09-22T01:10:32.174Z,13.90
2018-09-22T01:13:56.601Z,13.90
2018-09-22T01:17:21.016Z,13.94
2018-09-22T01:20:45.520Z,13.94
2018-09-22T01:24:10.002Z,13.81
2018-09-22T01:27:34.432Z,13.48
2018-09-22T01:30:58.880Z,13.49
2018-09-22T01:34:23.267Z,13.46
2018-09-22T01:37:47.721Z,13.63
2018-09-22T01:41:12.237Z,13.42
2018-09-22T01:44:36.858Z,13.31
2018-09-22T01:48:01.377Z,13.09
2018-09-22T01:51:25.846Z,13.42
2018-09-22T01:54:50.256Z,13.59
2018-09-22T01:58:14.696Z,13.49
2018-09-22T02:01:39.172Z,13.80
2018-09-22T02:05:03.718Z,13.80
2018-09-22T02:08:28.187Z,13.74
2018-09-22T02:11:52.647Z,13.82
2018-09-22T02:15:17.085Z,13.85
2018-09-22T02:18:41.510Z,13.75
2018-09-22T02:22:05.961Z,14.08
2018-09-22T02:25:30.406Z,14.21
2018-09-22T02:28:54.807Z,13.98
2018-09-22T02:32:19.266Z,14.12
2018-09-22T02:35:43.746Z,13.86
2018-09-22T02:39:10.279Z,13.97
2018-09-22T02:42:34.782Z,13.82
2018-09-22T02:45:59.204Z,13.75
2018-09-22T02:49:23.609Z,13.72
2018-09-22T02:52:47.996Z,13.68
2018-09-22T02:56:12.405Z,13.95
2018-09-22T02:59:36.830Z,13.88
2018-09-22T03:03:01.250Z,13.74
2018-09-22T03:06:25.652Z,13.78
2018-09-22T03:09:50.025Z,13.77
2018-09-22T03:13:14.453Z,13.85
2018-09-22T03:16:39.166Z,13.91
2018-09-22T03:20:03.564Z,14.07
2018-09-22T03:23:27.969Z,14.04
2018-09-22T03:26:53.640Z,14.03
2018-09-22T03:30:18.050Z,13.87
2018-09-22T03:33:42.494Z,14.11
2018-09-22T03:37:07.005Z,14.16
2018-09-22T03:40:31.420Z,14.12
2018-09-22T03:43:56.080Z,13.94
2018-09-22T03:47:20.506Z,14.13
2018-09-22T03:50:44.919Z,14.04
2018-09-22T03:54:09.371Z,14.00
2018-09-22T03:57:33.918Z,13.90
2018-09-22T04:00:58.299Z,14.21
2018-09-22T04:04:22.793Z,14.17
2018-09-22T04:07:47.184Z,14.09
2018-09-22T04:11:11.596Z,14.59
2018-09-22T04:14:36.018Z,14.49
2018-09-22T04:18:00.473Z,14.61
2018-09-22T04:21:25.020Z,14.37
2018-09-22T04:24:49.447Z,14.47
2018-09-22T04:28:13.924Z,14.35
2018-09-22T04:31:38.379Z,14.43
2018-09-22T04:35:02.827Z,14.47
2018-09-22T04:38:27.246Z,14.47
2018-09-22T04:41:51.695Z,14.56
2018-09-22T04:45:16.155Z,14.54
2018-09-22T04:48:40.684Z,14.62
2018-09-22T04:52:05.127Z,14.62
2018-09-22T04:55:29.764Z,14.52
2018-09-22T04:58:54.438Z,14.37
2018-09-22T05:02:18.890Z,14.22
2018-09-22T05:05:43.278Z,14.36
2018-09-22T05:09:11.446Z,14.46
2018-09-22T05:12:35.886Z,14.46
2018-09-22T05:16:00.313Z,14.50
2018-09-22T05:19:24.810Z,14.41
2018-09-22T05:22:49.219Z,14.48
2018-09-22T05:26:13.635Z,14.20
2018-09-22T05:29:38.186Z,14.30
2018-09-22T05:33:02.631Z,14.18
2018-09-22T05:36:27.073Z,14.38
2018-09-22T05:39:51.480Z,14.34
2018-09-22T05:43:15.907Z,14.15
2018-09-22T05:46:40.406Z,14.31
2018-09-22T05:50:04.910Z,14.11
2018-09-22T05:53:29.307Z,13.90
2018-09-22T05:56:53.765Z,14.22
2018-09-22T06:00:18.199Z,14.29
2018-09-22T06:03:42.669Z,13.95
2018-09-22T06:07:07.332Z,14.28
2018-09-22T06:10:31.816Z,14.28
2018-09-22T06:13:56.252Z,14.53
2018-09-22T06:17:20.682Z,14.43
2018-09-22T06:20:45.073Z,14.44
2018-09-22T06:24:09.592Z,14.71
2018-09-22T06:27:34.027Z,15.01
2018-09-22T06:30:58.443Z,14.72
2018-09-22T06:34:22.871Z,14.68
2018-09-22T06:37:47.335Z,14.62
2018-09-22T06:41:11.750Z,14.79
2018-09-22T06:44:36.189Z,14.87
2018-09-22T06:48:00.606Z,14.85
2018-09-22T06:51:25.069Z,14.81
2018-09-22T06:54:49.552Z,15.04
2018-09-22T06:58:13.953Z,15.25
2018-09-22T07:01:38.361Z,15.23
2018-09-22T07:05:02.756Z,15.02
2018-09-22T07:08:27.156Z,14.81
2018-09-22T07:11:51.563Z,15.10
2018-09-22T07:15:16.672Z,15.53
2018-09-22T07:18:41.330Z,15.31
2018-09-22T07:22:10.940Z,15.32
2018-09-22T07:25:35.511Z,15.18
2018-09-22T07:29:00.078Z,15.31
2018-09-22T07:32:24.526Z,14.96
2018-09-22T07:35:49.038Z,15.27
2018-09-22T07:39:13.688Z,15.03
2018-09-22T07:42:38.097Z,14.95
2018-09-22T07:46:02.554Z,15.11
2018-09-22T07:49:26.994Z,15.28
2018-09-22T07:52:51.470Z,15.58
2018-09-22T07:56:15.943Z,15.78
2018-09-22T07:59:40.392Z,15.80
2018-09-22T08:03:04.857Z,16.06
2018-09-22T08:06:29.287Z,16.20
2018-09-22T08:09:53.706Z,16.54
2018-09-22T08:13:18.157Z,16.38
2018-09-22T08:16:42.589Z,15.81
2018-09-22T08:20:07.596Z,15.96
2018-09-22T08:23:31.979Z,16.54
2018-09-22T08:26:56.431Z,16.51
2018-09-22T08:30:20.850Z,16.66
2018-09-22T08:33:45.256Z,16.10
2018-09-22T08:37:09.858Z,16.62
2018-09-22T08:40:34.142Z,16.74
2018-09-22T08:43:58.591Z,16.98
2018-09-22T08:47:23.082Z,16.98
2018-09-22T08:50:47.512Z,16.95
2018-09-22T08:54:11.900Z,16.99
2018-09-22T08:57:36.309Z,16.76
2018-09-22T09:01:00.776Z,16.87
2018-09-22T09:04:25.151Z,17.30
2018-09-22T09:07:49.601Z,17.17
2018-09-22T09:11:14.037Z,17.30
2018-09-22T09:14:38.529Z,17.13
2018-09-22T09:18:02.906Z,17.42
2018-09-22T09:21:27.374Z,17.44
2018-09-22T09:24:51.935Z,18.11
2018-09-22T09:28:16.382Z,19.16
2018-09-22T09:31:40.839Z,18.93
2018-09-22T09:35:05.349Z,18.63
2018-09-22T09:38:30.987Z,18.40
2018-09-22T09:41:55.408Z,18.66
2018-09-22T09:45:19.822Z,19.10
2018-09-22T09:48:44.257Z,19.17
2018-09-22T09:52:09.283Z,19.14
2018-09-22T09:55:33.684Z,18.99
2018-09-22T09:58:58.138Z,19.12
2018-09-22T10:02:24.922Z,20.03
2018-09-22T10:05:49.640Z,18.95
2018-09-22T10:09:14.104Z,19.29
2018-09-22T10:12:38.649Z,20.56
2018-09-22T10:16:03.146Z,21.48
2018-09-22T10:19:27.939Z,22.33
2018-09-22T10:22:52.652Z,24.71
2018-09-22T10:26:17.288Z,23.06
2018-09-22T10:29:43.085Z,21.31
2018-09-22T10:33:07.543Z,22.79
2018-09-22T10:36:32.457Z,24.17
2018-09-22T10:39:57.896Z,23.07
2018-09-22T10:43:23.644Z,22.55
2018-09-22T10:46:49.310Z,21.58
2018-09-22T10:50:14.628Z,20.14
2018-09-22T10:53:39.536Z,20.60
2018-09-22T10:57:03.925Z,20.59
2018-09-22T11:00:28.299Z,20.63
2018-09-22T11:03:52.747Z,19.67
2018-09-22T11:07:17.171Z,19.33
2018-09-22T11:10:41.623Z,19.00
2018-09-22T11:14:06.103Z,19.32
2018-09-22T11:17:30.558Z,19.77
2018-09-22T11:20:54.997Z,19.70
2018-09-22T11:24:20.431Z,19.40
2018-09-22T11:27:45.701Z,19.57
2018-09-22T11:31:10.282Z,19.04
2018-09-22T11:34:35.159Z,20.12
2018-09-22T11:37:59.961Z,20.45
2018-09-22T11:41:24.857Z,20.55
2018-09-22T11:44:49.358Z,20.47
2018-09-22T11:48:13.778Z,21.39
2018-09-22T11:51:38.763Z,20.96
2018-09-22T11:55:03.454Z,20.89
2018-09-22T11:58:28.376Z,20.65
2018-09-22T12:01:52.863Z,19.98
2018-09-22T12:05:17.346Z,19.83
2018-09-22T12:08:41.812Z,19.88
2018-09-22T12:12:06.383Z,19.78
2018-09-22T12:15:30.910Z,19.00
2018-09-22T12:18:55.404Z,19.29
2018-09-22T12:22:20.091Z,18.73
2018-09-22T12:25:44.772Z,18.77
2018-09-22T12:29:09.314Z,18.68
2018-09-22T12:32:34.042Z,18.84
2018-09-22T12:35:59.924Z,18.28
2018-09-22T12:39:24.605Z,18.81
2018-09-22T12:42:55.690Z,18.90
2018-09-22T12:46:22.594Z,18.74
2018-09-22T12:49:48.489Z,18.30
2018-09-22T12:53:13.713Z,18.14
2018-09-22T12:56:38.252Z,18.82
2018-09-22T13:00:03.300Z,18.66
2018-09-22T13:03:28.119Z,18.82
2018-09-22T13:06:52.572Z,18.98
2018-09-22T13:10:17.116Z,19.02
2018-09-22T13:13:42.010Z,18.83
2018-09-22T13:17:06.657Z,18.91
2018-09-22T13:20:31.120Z,18.85
2018-09-22T13:23:55.915Z,18.61
2018-09-22T13:27:20.711Z,18.81
2018-09-22T13:30:45.220Z,18.88
2018-09-22T13:34:09.990Z,18.70
2018-09-22T13:37:34.899Z,18.53
2018-09-22T13:40:59.863Z,17.41
2018-09-22T13:44:25.748Z,16.83
2018-09-22T13:47:50.444Z,16.93
2018-09-22T13:51:16.476Z,16.46
2018-09-22T13:54:42.198Z,16.58
2018-09-22T13:58:07.414Z,16.41
2018-09-22T14:01:33.010Z,16.34
2018-09-22T14:04:58.175Z,16.60
2018-09-22T14:08:23.663Z,16.65
2018-09-22T14:11:48.240Z,16.67
2018-09-22T14:15:12.970Z,17.14
2018-09-22T14:18:38.199Z,17.02
2018-09-22T14:22:03.441Z,17.06
2018-09-22T14:25:28.241Z,16.78
2018-09-22T14:28:54.438Z,16.75
2018-09-22T14:32:20.501Z,16.53
2018-09-22T14:35:47.468Z,16.59
2018-09-22T14:39:13.046Z,16.83
2018-09-22T14:42:37.571Z,16.67
2018-09-22T14:46:02.733Z,16.83
2018-09-22T14:49:28.063Z,16.78
2018-09-22T14:52:53.920Z,16.79
2018-09-22T14:56:18.579Z,16.23
2018-09-22T14:59:43.498Z,16.17
2018-09-22T15:03:08.196Z,16.06
2018-09-22T15:06:32.653Z,15.64
2018-09-22T15:09:57.088Z,15.65
2018-09-22T15:13:21.626Z,15.83
2018-09-22T15:16:46.077Z,15.52
2018-09-22T15:20:10.555Z,15.43
2018-09-22T15:23:35.105Z,15.46
2018-09-22T15:26:59.655Z,15.56
2018-09-22T15:30:24.173Z,15.71
2018-09-22T15:33:48.568Z,15.72
2018-09-22T15:37:12.980Z,16.02
2018-09-22T15:40:37.477Z,15.56
2018-09-22T15:44:02.047Z,15.61
2018-09-22T15:47:26.513Z,15.45
2018-09-22T15:50:50.953Z,15.62
2018-09-22T15:54:15.379Z,15.15
2018-09-22T15:57:39.797Z,15.33
2018-09-22T16:01:04.216Z,14.94
2018-09-22T16:04:29.744Z,15.07
2018-09-22T16:07:54.235Z,15.03
2018-09-22T16:11:18.680Z,14.95
2018-09-22T16:14:43.171Z,15.01
2018-09-22T16:18:07.631Z,15.07
2018-09-22T16:21:32.567Z,15.08
2018-09-22T16:24:57.012Z,15.07
2018-09-22T16:28:21.439Z,15.09
2018-09-22T16:31:45.874Z,15.21
2018-09-22T16:35:10.403Z,15.25
2018-09-22T16:38:34.805Z,15.19
2018-09-22T16:42:00.948Z,15.07
2018-09-22T16:45:25.558Z,14.96
2018-09-22T16:48:50.506Z,14.73
2018-09-22T16:52:16.376Z,14.54
2018-09-22T16:55:41.569Z,14.56
2018-09-22T16:59:07.708Z,14.39
2018-09-22T17:02:33.101Z,14.33
2018-09-22T17:05:58.133Z,14.36
2018-09-22T17:09:23.303Z,14.44
2018-09-22T17:12:48.681Z,14.29
2018-09-22T17:16:14.120Z,14.25
2018-09-22T17:19:38.703Z,14.20
2018-09-22T17:23:03.748Z,14.24
2018-09-22T17:26:28.815Z,14.20
2018-09-22T17:29:53.658Z,14.17
2018-09-22T17:33:18.423Z,14.08
2018-09-22T17:36:43.500Z,13.95
2018-09-22T17:40:08.270Z,14.06
2018-09-22T17:43:32.991Z,14.05
2018-09-22T17:46:58.094Z,14.10
2018-09-22T17:50:23.085Z,14.03
2018-09-22T17:53:48.031Z,14.13
2018-09-22T17:57:13.501Z,14.13
2018-09-22T18:00:38.998Z,14.00
2018-09-22T18:04:04.418Z,14.14
2018-09-22T18:07:30.044Z,14.05
2018-09-22T18:10:55.598Z,14.43
2018-09-22T18:14:20.650Z,14.11
2018-09-22T18:17:45.691Z,14.13
2018-09-22T18:21:10.519Z,13.98
2018-09-22T18:24:35.421Z,14.09
2018-09-22T18:28:00.928Z,14.09
2018-09-22T18:31:26.459Z,14.04
2018-09-22T18:34:51.509Z,14.04
2018-09-22T18:38:17.052Z,14.10
2018-09-22T18:41:42.489Z,14.15
2018-09-22T18:45:07.332Z,14.11
2018-09-22T18:48:32.415Z,14.18
2018-09-22T18:51:58.142Z,13.93
2018-09-22T18:55:22.862Z,14.08
2018-09-22T18:58:47.410Z,13.96
2018-09-22T19:02:11.868Z,13.94
2018-09-22T19:05:36.310Z,14.01
2018-09-22T19:09:00.881Z,14.08
2018-09-22T19:12:25.415Z,13.75
2018-09-22T19:15:51.174Z,13.79
2018-09-22T19:19:20.480Z,13.83
2018-09-22T19:22:48.049Z,13.80
2018-09-22T19:26:20.927Z,13.80
2018-09-22T19:29:54.920Z,13.95
2018-09-22T19:33:51.689Z,14.19
2018-09-22T19:37:25.109Z,14.07
2018-09-22T19:41:57.598Z,14.07
2018-09-22T19:45:39.645Z,13.93
2018-09-22T19:49:17.377Z,13.91
2018-09-22T19:52:47.635Z,14.03
2018-09-22T19:56:12.215Z,14.00
2018-09-22T19:59:36.676Z,14.11
2018-09-22T20:03:01.164Z,14.12
2018-09-22T20:06:25.629Z,14.18
2018-09-22T20:09:50.149Z,14.06
2018-09-22T20:13:14.653Z,13.93
2018-09-22T20:16:39.176Z,13.88
2018-09-22T20:20:03.846Z,13.92
2018-09-22T20:23:28.397Z,13.81
2018-09-22T20:26:53.020Z,13.97
2018-09-22T20:30:17.661Z,13.89
2018-09-22T20:33:42.148Z,13.80
2018-09-22T20:37:06.700Z,13.69
2018-09-22T20:40:31.504Z,13.81
2018-09-22T20:43:56.021Z,13.74
2018-09-22T20:47:20.841Z,13.91
2018-09-22T20:50:45.438Z,13.77
2018-09-22T20:54:09.917Z,13.61
2018-09-22T20:57:35.770Z,13.66
2018-09-22T21:01:02.019Z,13.62
2018-09-22T21:04:27.628Z,13.50
2018-09-22T21:07:52.564Z,13.48
2018-09-22T21:11:17.232Z,13.45
2018-09-22T21:14:43.757Z,13.53
2018-09-22T21:18:09.301Z,13.61
2018-09-22T21:21:35.510Z,13.62
2018-09-22T21:25:00.747Z,13.55
2018-09-22T21:28:25.917Z,13.53
2018-09-22T21:31:50.333Z,13.36
2018-09-22T21:35:14.830Z,13.50
2018-09-22T21:38:40.043Z,13.32
2018-09-22T21:42:05.764Z,13.44
2018-09-22T21:45:30.618Z,13.54
2018-09-22T21:48:56.083Z,13.61
2018-09-22T21:52:22.205Z,13.69
2018-09-22T21:55:47.564Z,13.58
2018-09-22T21:59:13.491Z,13.56
2018-09-22T22:02:38.408Z,13.58
2018-09-22T22:06:03.200Z,13.56
2018-09-22T22:09:27.956Z,13.51
2018-09-22T22:12:52.646Z,13.52
2018-09-22T22:16:17.174Z,13.50
2018-09-22T22:19:41.699Z,13.36
2018-09-22T22:23:08.680Z,13.49
2018-09-22T22:26:34.369Z,13.65
2018-09-22T22:29:59.492Z,13.72
2018-09-22T22:33:24.462Z,13.84
2018-09-22T22:36:50.450Z,13.70
2018-09-22T22:40:14.908Z,13.72
2018-09-22T22:43:39.431Z,13.66
2018-09-22T22:47:03.933Z,13.57
2018-09-22T22:50:28.515Z,13.72
2018-09-22T22:53:53.094Z,13.73
2018-09-22T22:57:17.668Z,13.67
2018-09-22T23:00:42.231Z,13.72
2018-09-22T23:04:06.972Z,13.59
2018-09-22T23:07:31.448Z,13.67
2018-09-22T23:10:55.957Z,13.82
2018-09-22T23:14:20.373Z,13.54
2018-09-22T23:17:44.862Z,13.63
2018-09-22T23:21:09.474Z,13.61
2018-09-22T23:24:33.900Z,13.63
2018-09-22T23:27:58.351Z,13.67
2018-09-22T23:31:22.857Z,13.61
2018-09-22T23:34:47.272Z,13.61
2018-09-22T23:38:11.712Z,13.70
2018-09-22T23:41:36.157Z,13.69
2018-09-22T23:45:00.660Z,13.70
2018-09-22T23:48:25.093Z,13.58
2018-09-22T23:51:49.528Z,13.67
2018-09-22T23:55:14.015Z,13.68
2018-09-22T23:58:38.573Z,13.69
